Time;durP1;ratioP1;P1;durP2;ratioP2;P2;SDS_P1;SDS_P2;PMS_P1;PMS_P2;Temp;Humidity;BMP_temperature;BMP_pressure;BME280_temperature;BME280_humidity;BME280_pressure;Samples;Min_cycle;Max_cycle;Signal;HPM_P1;HPM_P2
2022/10/10 00:00:08;;;;;;;3.58;1.67;;;;;;;12.14;62.46;99577.63;5058635;28;20083;-41
2022/10/10 00:02:35;;;;;;;7.95;1.63;;;;;;;12.16;63.23;99570.69;5044056;28;20102;-41
2022/10/10 00:05:02;;;;;;;3.55;1.67;;;;;;;12.14;62.14;99572.44;5060667;28;20131;-41
2022/10/10 00:07:28;;;;;;;4.65;1.88;;;;;;;12.13;63.05;99561.19;5035244;28;20524;-41
2022/10/10 00:09:55;;;;;;;4.65;1.65;;;;;;;12.13;62.48;99575.94;5049251;28;20037;-40
2022/10/10 00:12:21;;;;;;;4.03;1.95;;;;;;;12.14;63.02;99572.44;5051836;28;20069;-41
2022/10/10 00:14:48;;;;;;;2.10;1.15;;;;;;;12.13;63.52;99576.78;5053156;28;20048;-41
2022/10/10 00:17:14;;;;;;;3.53;1.63;;;;;;;12.16;63.16;99581.09;5055194;28;20162;-41
2022/10/10 00:19:41;;;;;;;3.38;1.65;;;;;;;12.16;63.64;99581.09;5054606;28;20081;-41
2022/10/10 00:22:08;;;;;;;4.20;1.13;;;;;;;12.15;63.50;99576.75;5045965;28;20127;-41
2022/10/10 00:24:34;;;;;;;3.67;1.27;;;;;;;12.15;63.24;99577.63;5051393;28;20128;-40
2022/10/10 00:27:01;;;;;;;6.53;1.55;;;;;;;12.15;64.29;99579.34;5044082;28;20588;-40
2022/10/10 00:29:27;;;;;;;3.15;1.50;;;;;;;12.13;63.51;99584.56;5050797;28;20048;-42
2022/10/10 00:31:54;;;;;;;5.13;1.63;;;;;;;12.16;64.04;99581.09;5037112;28;20140;-40
2022/10/10 00:34:20;;;;;;;5.88;2.10;;;;;;;12.16;64.32;99587.13;5052721;28;20132;-40
2022/10/10 00:36:47;;;;;;;4.80;1.48;;;;;;;12.17;64.09;99591.44;5051499;28;20048;-41
2022/10/10 00:39:13;;;;;;;2.75;1.13;;;;;;;12.16;64.68;99581.09;5047214;28;20703;-41
2022/10/10 00:41:40;;;;;;;2.55;1.33;;;;;;;12.16;64.05;99586.28;5050887;28;20139;-41
2022/10/10 00:44:10;;;;;;;6.32;1.73;;;;;;;12.20;63.57;99587.94;5041793;28;20106;-42
2022/10/10 00:46:37;;;;;;;3.33;1.20;;;;;;;12.18;64.07;99587.09;5043477;28;20084;-41
2022/10/10 00:49:11;;;;;;;4.20;1.63;;;;;;;12.18;64.20;99574.09;5006851;28;20139;-41
2022/10/10 00:51:38;;;;;;;3.35;1.08;;;;;;;12.16;64.55;99586.28;5052047;28;20076;-41
2022/10/10 00:54:08;;;;;;;6.35;2.22;;;;;;;12.17;65.52;99587.97;5031520;28;20116;-42
2022/10/10 00:56:38;;;;;;;;;;;;;;;11.99;64.46;99579.56;5050683;28;20072;-41
2022/10/10 00:59:07;;;;;;;4.75;2.17;;;;;;;12.09;64.80;99590.69;5048884;28;19960;-40
2022/10/10 01:01:34;;;;;;;7.90;2.03;;;;;;;12.10;64.42;99586.38;5045592;28;20536;-41
2022/10/10 01:04:01;;;;;;;4.47;1.40;;;;;;;12.11;64.87;99590.66;5045228;28;20079;-40
2022/10/10 01:06:29;;;;;;;4.65;2.22;;;;;;;12.11;64.94;99588.06;5048571;28;20047;-40
2022/10/10 01:08:56;;;;;;;4.72;1.70;;;;;;;12.12;66.28;99595.00;5055118;28;20579;-39
2022/10/10 01:17:02;;;;;;;6.47;1.88;;;;;;;12.08;65.07;99602.84;5004508;28;20406;-40
2022/10/10 01:20:08;;;;;;;7.10;1.60;;;;;;;12.06;65.73;99606.34;4999006;28;20046;-40
2022/10/10 01:27:58;;;;;;;7.25;1.95;;;;;;;12.11;66.65;99596.72;5038476;27;20406;-40
2022/10/10 01:30:25;;;;;;;5.82;1.60;;;;;;;12.10;65.92;99597.63;5017932;28;20076;-40
2022/10/10 01:32:58;;;;;;;5.32;1.45;;;;;;;12.10;67.10;99601.94;5018152;28;20869;-40
2022/10/10 01:35:57;;;;;;;5.03;1.92;;;;;;;12.04;66.73;99598.53;5019476;28;20132;-40
2022/10/10 01:41:07;;;;;;;3.40;1.60;;;;;;;12.10;67.55;99618.38;5007826;28;20431;-41
2022/10/10 01:43:35;;;;;;;5.05;1.90;;;;;;;12.12;66.68;99623.56;4985086;28;20069;-41
2022/10/10 01:46:18;;;;;;;3.38;1.70;;;;;;;12.10;67.04;99627.91;4983013;28;20113;-41
2022/10/10 01:48:48;;;;;;;4.95;1.92;;;;;;;12.14;66.48;99630.44;5019186;28;20137;-40
2022/10/10 01:51:55;;;;;;;4.03;1.30;;;;;;;12.08;67.14;99626.19;5004083;28;20050;-41
2022/10/10 01:55:01;;;;;;;6.53;2.25;;;;;;;12.07;67.85;99623.63;4996074;28;20054;-42
2022/10/10 02:00:16;;;;;;;4.75;2.45;;;;;;;12.09;67.00;99619.25;5054890;28;20403;-40
2022/10/10 02:03:08;;;;;;;6.28;2.65;;;;;;;12.05;68.79;99621.00;5007419;28;20148;-43
2022/10/10 02:06:01;;;;;;;3.92;2.50;;;;;;;12.07;67.91;99608.03;5015553;28;20076;-41
2022/10/10 02:11:07;;;;;;;7.90;1.58;;;;;;;12.08;68.26;99605.44;4995505;27;20403;-41
2022/10/10 02:13:47;;;;;;;4.75;1.70;;;;;;;12.08;68.02;99609.75;4994832;28;20136;-42
2022/10/10 02:16:22;;;;;;;6.68;1.50;;;;;;;12.10;68.78;99607.13;4998172;28;20064;-39
2022/10/10 02:18:50;;;;;;;6.38;1.50;;;;;;;12.08;68.59;99608.03;4995252;28;20089;-41
2022/10/10 02:21:17;;;;;;;4.57;1.65;;;;;;;12.08;68.99;99610.63;5010143;28;20565;-40
2022/10/10 02:23:49;;;;;;;4.80;1.73;;;;;;;12.08;68.08;99605.44;4994400;28;20129;-42
2022/10/10 02:26:17;;;;;;;5.35;1.42;;;;;;;12.07;68.45;99603.72;4992929;28;20058;-42
2022/10/10 02:28:54;;;;;;;3.40;1.50;;;;;;;12.05;69.21;99605.44;5011328;28;20549;-40
2022/10/10 02:31:33;;;;;;;3.53;1.58;;;;;;;12.04;68.89;99608.06;4997491;28;20097;-41
2022/10/10 02:34:06;;;;;;;5.55;1.73;;;;;;;12.06;69.19;99617.56;4994834;28;20136;-42
2022/10/10 02:36:33;;;;;;;4.68;1.77;;;;;;;12.08;68.41;99625.31;4990996;28;20706;-40
2022/10/10 02:39:01;;;;;;;6.20;2.08;;;;;;;12.08;68.93;99626.19;4993533;28;20076;-41
2022/10/10 02:41:29;;;;;;;5.88;3.38;;;;;;;12.07;68.94;99629.69;4998678;28;20275;-40
2022/10/10 02:43:57;;;;;;;6.97;1.90;;;;;;;12.08;68.88;99627.91;4992211;28;20141;-40
2022/10/10 02:46:23;;;;;;;9.23;3.17;;;;;;;12.08;68.70;99625.31;4994422;28;20900;-43
2022/10/10 02:48:50;;;;;;;5.03;2.10;;;;;;;12.07;70.08;99624.50;4992987;28;20132;-40
2022/10/10 02:51:17;;;;;;;6.38;2.20;;;;;;;12.08;69.50;99626.19;4993006;28;20145;-40
2022/10/10 02:53:43;;;;;;;5.80;1.95;;;;;;;12.08;69.64;99625.31;5008028;28;20129;-42
2022/10/10 02:56:10;;;;;;;5.05;1.70;;;;;;;12.08;69.91;99631.38;4991755;28;20137;-40
2022/10/10 02:58:37;;;;;;;3.97;2.30;;;;;;;12.08;69.75;99636.56;4998614;28;20629;-41
2022/10/10 03:01:04;;;;;;;5.10;2.05;;;;;;;12.10;69.15;99638.28;4991517;28;20542;-42
2022/10/10 03:03:30;;;;;;;6.15;2.30;;;;;;;12.10;69.75;99635.69;4995637;28;20077;-42
2022/10/10 03:05:57;;;;;;;4.90;1.75;;;;;;;12.10;69.76;99643.47;4991330;28;20162;-41
2022/10/10 03:08:23;;;;;;;4.97;2.42;;;;;;;12.10;69.39;99643.47;4994934;28;20129;-40
2022/10/10 03:10:56;;;;;;;6.05;2.20;;;;;;;12.10;69.91;99643.47;4993811;28;20148;-42
2022/10/10 03:13:23;;;;;;;5.70;2.20;;;;;;;12.11;69.62;99650.38;4992538;28;20077;-42
2022/10/10 03:15:50;;;;;;;4.47;1.73;;;;;;;12.09;70.33;99653.00;4991849;28;20046;-39
2022/10/10 03:18:17;;;;;;;3.50;1.92;;;;;;;12.08;69.23;99662.53;4994920;28;20583;-41
2022/10/10 03:20:45;;;;;;;5.57;1.83;;;;;;;12.06;70.18;99664.28;4988327;28;20482;-40
2022/10/10 03:23:12;;;;;;;3.75;1.67;;;;;;;12.05;70.45;99678.13;4978218;28;20589;-42
2022/10/10 03:25:40;;;;;;;6.05;1.88;;;;;;;12.05;70.94;99683.31;4978893;28;20137;-41
2022/10/10 03:28:07;;;;;;;4.38;1.70;;;;;;;12.04;71.59;99684.19;4987079;28;20153;-42
2022/10/10 03:30:35;;;;;;;5.32;2.08;;;;;;;12.04;70.73;99686.78;4969215;28;20050;-43
2022/10/10 03:33:01;;;;;;;3.58;1.88;;;;;;;12.03;71.30;99700.63;4967265;28;20043;-41
2022/10/10 03:35:28;;;;;;;6.75;2.17;;;;;;;12.04;70.48;99702.38;4978730;28;20157;-41
2022/10/10 03:37:56;;;;;;;4.63;2.20;;;;;;;12.02;72.15;99706.72;4982525;28;20125;-41
2022/10/10 03:40:22;;;;;;;4.35;1.90;;;;;;;12.02;72.61;99704.13;4981676;28;20178;-42
2022/10/10 03:42:49;;;;;;;3.67;1.60;;;;;;;11.98;72.27;99705.03;4984117;28;20050;-40
2022/10/10 03:45:16;;;;;;;3.00;1.73;;;;;;;11.95;73.32;99699.88;4985862;28;20058;-41
2022/10/10 03:47:43;;;;;;;6.15;1.88;;;;;;;11.90;73.35;99709.47;4979306;28;20528;-42
2022/10/10 03:50:10;;;;;;;5.82;1.92;;;;;;;11.86;74.24;99713.88;4986535;28;20660;-42
2022/10/10 03:52:36;;;;;;;4.72;1.35;;;;;;;11.82;72.87;99717.34;4982592;28;20137;-41
2022/10/10 03:55:03;;;;;;;2.65;1.55;;;;;;;11.79;72.73;99725.19;4983104;28;20162;-40
2022/10/10 03:57:30;;;;;;;6.70;1.20;;;;;;;11.73;73.52;99726.13;4985900;28;20072;-40
2022/10/10 03:59:56;;;;;;;6.20;2.65;;;;;;;11.72;72.83;99732.19;4980872;28;20808;-42
2022/10/10 04:02:23;;;;;;;2.13;1.20;;;;;;;11.68;72.46;99740.88;4984668;28;20046;-39
2022/10/10 04:04:50;;;;;;;2.95;1.00;;;;;;;11.65;73.03;99746.13;4984444;28;20082;-40
2022/10/10 04:07:17;;;;;;;3.92;0.77;;;;;;;11.59;72.23;99743.59;4985148;28;20074;-40
2022/10/10 04:09:44;;;;;;;6.38;1.20;;;;;;;11.57;72.74;99754.88;4983510;28;20165;-40
2022/10/10 04:12:10;;;;;;;7.05;1.48;;;;;;;11.54;72.53;99749.69;4974720;28;20134;-42
2022/10/10 04:14:37;;;;;;;5.10;1.00;;;;;;;11.51;71.68;99752.31;4982155;28;20141;-41
2022/10/10 04:17:03;;;;;;;5.88;0.90;;;;;;;11.50;71.29;99755.81;4984383;28;20145;-40
2022/10/10 04:19:30;;;;;;;1.50;0.80;;;;;;;11.50;71.31;99770.50;4980790;28;20053;-40
2022/10/10 04:21:56;;;;;;;7.18;0.80;;;;;;;11.45;72.26;99760.16;4981671;28;20082;-42
2022/10/10 04:24:23;;;;;;;3.45;0.73;;;;;;;11.43;71.80;99767.13;4982657;28;20129;-40
2022/10/10 04:26:49;;;;;;;4.28;0.57;;;;;;;11.40;71.13;99772.34;4978525;28;20146;-42
2022/10/10 04:29:16;;;;;;;4.78;0.90;;;;;;;11.42;71.27;99780.97;4983564;28;20074;-42
2022/10/10 04:31:43;;;;;;;3.15;0.30;;;;;;;11.36;71.18;99778.44;4980221;28;20050;-40
2022/10/10 04:34:09;;;;;;;5.32;0.68;;;;;;;11.36;71.10;99791.38;4981062;28;20161;-41
2022/10/10 04:36:36;;;;;;;3.85;0.60;;;;;;;11.30;70.33;99788.00;4986866;28;20156;-40
2022/10/10 04:39:03;;;;;;;4.97;0.57;;;;;;;11.29;70.90;99800.97;4976096;28;20050;-42
2022/10/10 04:41:29;;;;;;;4.68;2.05;;;;;;;11.27;70.60;99803.56;4976927;28;20426;-41
2022/10/10 04:43:56;;;;;;;6.35;1.70;;;;;;;11.26;70.09;99806.19;4980696;28;20462;-40
2022/10/10 04:46:23;;;;;;;6.28;0.90;;;;;;;11.23;69.98;99813.97;4976748;28;20506;-42
2022/10/10 04:48:50;;;;;;;4.22;0.77;;;;;;;11.21;70.21;99819.19;4978876;28;20576;-40
2022/10/10 04:51:17;;;;;;;8.48;0.60;;;;;;;11.18;70.47;99816.63;4982860;28;20117;-40
2022/10/10 04:53:44;;;;;;;7.57;0.50;;;;;;;11.17;69.91;99825.25;4976210;28;20446;-41
2022/10/10 04:56:15;;;;;;;5.03;0.60;;;;;;;11.15;70.75;99827.03;4978719;28;20160;-41
2022/10/10 04:58:42;;;;;;;3.30;0.47;;;;;;;11.13;70.55;99837.41;4978311;28;20081;-39
2022/10/10 05:01:08;;;;;;;1.63;0.40;;;;;;;11.12;69.75;99834.81;4977313;28;20121;-41
2022/10/10 05:03:35;;;;;;;5.38;0.60;;;;;;;11.12;70.65;99845.19;4982395;28;20046;-41
2022/10/10 05:06:02;;;;;;;3.45;0.50;;;;;;;11.12;70.45;99850.38;4982871;28;20097;-40
2022/10/10 05:08:28;;;;;;;6.13;0.50;;;;;;;11.13;70.43;99844.31;4983115;28;20138;-41
2022/10/10 05:10:55;;;;;;;1.77;0.30;;;;;;;11.12;70.30;99840.88;4982651;28;20129;-40
2022/10/10 05:13:22;;;;;;;4.05;0.50;;;;;;;11.14;70.43;99851.19;4976841;28;20050;-41
2022/10/10 05:15:51;;;;;;;5.60;0.50;;;;;;;11.14;69.86;99859.84;4987059;28;20133;-40
2022/10/10 05:18:18;;;;;;;3.60;1.30;;;;;;;11.14;70.26;99853.78;4978606;28;20054;-40
2022/10/10 05:20:46;;;;;;;3.20;0.40;;;;;;;11.12;69.81;99860.75;4983808;28;20042;-41
2022/10/10 05:23:13;;;;;;;4.65;1.45;;;;;;;11.11;69.70;99866.81;4975324;28;20384;-39
2022/10/10 05:25:46;;;;;;;1.80;0.52;;;;;;;11.12;69.82;99865.94;4977253;28;20086;-40
2022/10/10 05:28:13;;;;;;;4.15;0.70;;;;;;;11.11;70.60;99864.22;4979579;28;20046;-41
2022/10/10 05:30:39;;;;;;;3.30;0.60;;;;;;;11.10;70.76;99872.84;4980825;28;20046;-41
2022/10/10 05:33:06;;;;;;;4.57;0.40;;;;;;;11.09;69.81;99871.13;4979021;28;20042;-41
2022/10/10 05:35:32;;;;;;;3.83;1.25;;;;;;;11.07;69.99;99876.31;4980584;28;20465;-41
2022/10/10 05:37:59;;;;;;;3.63;0.73;;;;;;;11.06;70.03;99882.38;4979652;28;20074;-41
2022/10/10 05:40:26;;;;;;;3.33;0.55;;;;;;;11.04;70.29;99882.38;4976337;28;20051;-40
2022/10/10 05:42:52;;;;;;;7.55;0.70;;;;;;;11.03;70.21;99893.63;4984359;28;20050;-41
2022/10/10 05:45:19;;;;;;;5.97;1.02;;;;;;;11.02;70.94;99896.25;4976566;28;20042;-40
2022/10/10 05:47:46;;;;;;;5.25;0.50;;;;;;;11.02;70.51;99907.44;4982997;28;20129;-41
2022/10/10 05:50:28;;;;;;;3.95;0.80;;;;;;;10.98;70.40;99905.75;4980635;28;20498;-41
2022/10/10 05:52:55;;;;;;;4.72;0.70;;;;;;;11.00;70.08;99919.56;4973844;28;20101;-40
2022/10/10 05:55:21;;;;;;;6.07;0.50;;;;;;;10.98;71.32;99910.94;4981596;28;20509;-41
2022/10/10 05:57:48;;;;;;;6.90;0.55;;;;;;;10.97;70.48;99921.34;4982312;28;20125;-41
2022/10/10 06:00:15;;;;;;;6.13;0.80;;;;;;;10.95;70.96;99925.66;4980616;28;20155;-41
2022/10/10 06:02:41;;;;;;;6.45;0.65;;;;;;;10.94;71.44;99929.97;4977400;28;20130;-43
2022/10/10 06:05:08;;;;;;;2.95;0.57;;;;;;;10.93;71.62;99933.44;4975550;28;20047;-41
2022/10/10 06:07:34;;;;;;;4.55;0.63;;;;;;;10.92;70.63;99942.09;4979621;28;20056;-41
2022/10/10 06:10:21;;;;;;;3.58;0.68;;;;;;;10.90;71.04;99949.00;4981604;28;20053;-40
2022/10/10 06:12:48;;;;;;;7.30;0.90;;;;;;;10.89;71.02;99955.06;4976014;28;20137;-40
2022/10/10 06:15:15;;;;;;;10.45;1.15;;;;;;;10.88;71.66;99955.94;4978997;28;20109;-41
2022/10/10 06:17:41;;;;;;;9.00;1.02;;;;;;;10.83;70.94;99958.53;4977485;28;20093;-39
2022/10/10 06:20:08;;;;;;;5.97;0.70;;;;;;;10.79;71.01;99962.88;4978308;28;20584;-40
2022/10/10 06:22:35;;;;;;;4.25;0.73;;;;;;;10.72;71.18;99971.56;4979827;28;20050;-41
2022/10/10 06:25:02;;;;;;;4.70;0.70;;;;;;;10.67;71.53;99976.75;4979749;28;20142;-42
2022/10/10 06:27:28;;;;;;;7.15;0.82;;;;;;;10.61;71.32;99978.50;4980197;28;20678;-42
2022/10/10 06:29:55;;;;;;;8.57;0.70;;;;;;;10.54;71.51;99986.28;4978099;28;20078;-39
2022/10/10 06:32:21;;;;;;;4.15;0.70;;;;;;;10.50;71.31;99987.16;4980247;28;21598;-41
2022/10/10 06:34:48;;;;;;;6.97;0.90;;;;;;;10.44;71.61;100002.72;4983210;28;20061;-41
2022/10/10 06:37:14;;;;;;;8.68;0.75;;;;;;;10.39;71.60;99999.25;4978290;28;20046;-41
2022/10/10 06:39:41;;;;;;;6.65;0.88;;;;;;;10.34;71.08;100011.34;4980752;28;20069;-42
2022/10/10 06:42:08;;;;;;;9.27;0.93;;;;;;;10.29;71.12;100014.81;4978516;28;20895;-42
2022/10/10 06:44:34;;;;;;;5.85;0.85;;;;;;;10.25;71.46;100018.28;4984882;28;20125;-41
2022/10/10 06:47:01;;;;;;;4.80;0.63;;;;;;;10.22;70.94;100027.75;4979173;28;20124;-42
2022/10/10 06:49:28;;;;;;;7.75;1.10;;;;;;;10.19;71.15;100036.41;4971118;28;20509;-41
2022/10/10 06:51:55;;;;;;;7.82;0.70;;;;;;;10.17;71.84;100040.72;4971804;28;20101;-41
2022/10/10 06:54:21;;;;;;;8.13;1.10;;;;;;;10.16;71.07;100050.22;4971168;28;20084;-43
2022/10/10 06:56:48;;;;;;;9.43;0.88;;;;;;;10.14;71.06;100043.31;4973757;28;20049;-41
2022/10/10 06:59:15;;;;;;;7.63;0.95;;;;;;;10.12;71.09;100048.50;4976727;28;20050;-41
2022/10/10 07:01:41;;;;;;;7.50;0.90;;;;;;;10.11;71.26;100064.00;4974446;28;20129;-40
2022/10/10 07:04:10;;;;;;;4.65;0.90;;;;;;;10.10;71.39;100055.38;4977369;28;20051;-42
2022/10/10 07:06:37;;;;;;;5.97;0.63;;;;;;;10.08;71.71;100051.06;4978757;28;20058;-41
2022/10/10 07:09:04;;;;;;;8.07;1.27;;;;;;;10.07;71.31;100057.13;4976250;28;20082;-41
2022/10/10 07:11:31;;;;;;;8.25;1.42;;;;;;;10.07;71.42;100072.66;4971368;28;20193;-40
2022/10/10 07:13:57;;;;;;;11.85;1.90;;;;;;;10.09;71.38;100074.38;4977669;28;20498;-40
2022/10/10 07:16:24;;;;;;;3.50;1.02;;;;;;;10.11;71.86;100082.13;4977455;28;20093;-41
2022/10/10 07:18:51;;;;;;;8.85;1.20;;;;;;;10.15;71.95;100089.03;4983403;28;20126;-40
2022/10/10 07:21:18;;;;;;;5.97;0.70;;;;;;;10.20;71.60;100096.81;4982960;28;20137;-40
2022/10/10 07:23:45;;;;;;;8.10;1.10;;;;;;;10.24;71.61;100101.13;4977478;28;20050;-40
2022/10/10 07:26:14;;;;;;;8.15;0.88;;;;;;;10.28;71.85;100101.13;4983868;28;20070;-40
2022/10/10 07:28:40;;;;;;;9.48;0.98;;;;;;;10.34;71.38;100104.56;4981330;28;20109;-40
2022/10/10 07:31:09;;;;;;;4.55;0.77;;;;;;;10.40;71.58;100109.72;4981510;28;20049;-40
2022/10/10 07:33:39;;;;;;;8.02;1.10;;;;;;;10.48;71.90;100113.22;4981503;28;20058;-40
2022/10/10 07:36:06;;;;;;;8.57;1.00;;;;;;;10.57;72.16;100121.84;5000272;28;20154;-42
2022/10/10 07:38:34;;;;;;;4.03;0.98;;;;;;;10.63;72.14;100121.81;4979331;28;20084;-41
2022/10/10 07:41:05;;;;;;;10.80;1.50;;;;;;;10.71;71.96;100133.00;4967425;28;20046;-42
2022/10/10 07:43:32;;;;;;;9.13;1.58;;;;;;;10.79;71.67;100138.19;4978761;28;20529;-40
2022/10/10 07:45:58;;;;;;;4.90;0.80;;;;;;;10.91;71.48;100139.91;4984792;28;20050;-41
2022/10/10 07:48:26;;;;;;;7.72;1.38;;;;;;;10.96;71.71;100143.31;4985548;28;20042;-42
2022/10/10 07:50:52;;;;;;;8.45;1.30;;;;;;;11.01;71.29;100148.50;4984733;28;20309;-41
2022/10/10 07:53:19;;;;;;;9.55;1.00;;;;;;;11.08;71.46;100154.53;4984531;28;20158;-41
2022/10/10 07:55:46;;;;;;;5.93;1.27;;;;;;;11.17;72.34;100164.84;4985572;28;20545;-41
2022/10/10 07:58:12;;;;;;;9.00;1.23;;;;;;;11.29;71.42;100175.19;4983221;28;20070;-41
2022/10/10 08:00:40;;;;;;;6.57;1.15;;;;;;;11.44;71.84;100181.19;4985946;28;20378;-42
2022/10/10 08:03:08;;;;;;;7.95;1.30;;;;;;;11.60;71.17;100184.56;4962300;28;20082;-41
2022/10/10 08:05:39;;;;;;;7.25;1.33;;;;;;;11.76;70.72;100179.31;4980840;28;20076;-41
2022/10/10 08:08:06;;;;;;;9.23;1.40;;;;;;;11.95;70.67;100190.44;4983771;28;20051;-42
2022/10/10 08:10:32;;;;;;;11.90;1.95;;;;;;;12.47;70.59;100198.78;4983377;28;20462;-42
2022/10/10 08:12:59;;;;;;;5.90;1.35;;;;;;;13.32;68.53;100204.00;4982656;28;20197;-41
2022/10/10 08:15:25;;;;;;;12.55;1.80;;;;;;;14.20;66.88;100214.16;4979188;28;20085;-40
2022/10/10 08:17:57;;;;;;;9.48;1.90;;;;;;;15.03;65.43;100209.31;4979198;28;20129;-42
2022/10/10 08:20:23;;;;;;;5.32;1.15;;;;;;;15.70;63.30;100212.34;4977878;28;20093;-42
2022/10/10 08:22:50;;;;;;;8.23;2.03;;;;;;;16.23;62.05;100215.56;4978520;28;20090;-44
2022/10/10 08:25:17;;;;;;;11.23;1.13;;;;;;;16.77;60.77;100216.88;4973609;28;20054;-41
2022/10/10 08:27:44;;;;;;;7.30;0.80;;;;;;;17.32;59.63;100223.28;4979386;28;20077;-42
2022/10/10 08:30:11;;;;;;;6.18;1.38;;;;;;;17.69;57.93;100222.22;4972298;28;20117;-41
2022/10/10 08:32:37;;;;;;;9.15;1.38;;;;;;;18.15;57.29;100218.28;4983816;28;20038;-42
2022/10/10 08:35:04;;;;;;;4.38;0.77;;;;;;;18.84;56.09;100230.88;4979657;28;20077;-41
2022/10/10 08:37:31;;;;;;;7.53;1.33;;;;;;;19.51;55.24;100232.94;4979831;28;20082;-41
2022/10/10 08:40:03;;;;;;;7.53;1.15;;;;;;;20.19;53.48;100245.28;4973865;28;20053;-42
2022/10/10 08:42:38;;;;;;;2.85;0.80;;;;;;;20.76;52.17;100246.50;4979182;28;20074;-43
2022/10/10 08:45:19;;;;;;;4.75;0.95;;;;;;;21.00;51.31;100257.78;4977839;28;20055;-42
2022/10/10 08:47:56;;;;;;;7.38;0.98;;;;;;;20.83;52.07;100260.28;4983620;28;20054;-43
2022/10/10 08:50:29;;;;;;;7.70;1.10;;;;;;;20.57;52.16;100264.84;4977824;28;20561;-42
2022/10/10 08:53:03;;;;;;;4.43;1.02;;;;;;;20.73;52.75;100271.16;4979550;28;20053;-42
2022/10/10 08:55:33;;;;;;;4.68;0.80;;;;;;;21.21;51.28;100276.19;4978998;28;20044;-42
2022/10/10 08:58:05;;;;;;;5.28;0.70;;;;;;;21.80;50.71;100276.25;4977684;28;20698;-43
2022/10/10 09:00:38;;;;;;;5.28;0.68;;;;;;;22.41;49.24;100278.69;4977933;28;20141;-42
2022/10/10 09:03:22;;;;;;;5.50;1.23;;;;;;;22.95;47.64;100272.53;4977911;28;20565;-43
2022/10/10 09:11:20;;;;;;;5.10;1.70;;;;;;;24.07;44.92;100284.28;5001331;28;20407;-43
2022/10/10 09:14:01;;;;;;;6.43;2.05;;;;;;;24.46;44.03;100291.88;4983946;28;20130;-45
2022/10/10 09:16:40;;;;;;;7.00;2.38;;;;;;;24.75;43.26;100303.41;4986650;28;20043;-42
2022/10/10 09:21:47;;;;;;;3.72;0.70;;;;;;;25.26;42.48;100312.81;5043830;27;20907;-44
2022/10/10 09:24:41;;;;;;;8.32;1.25;;;;;;;25.47;40.48;100314.25;5015888;28;20053;-45
2022/10/10 09:27:15;;;;;;;5.35;1.40;;;;;;;25.53;39.87;100319.22;5020201;28;20045;-45
2022/10/10 09:32:31;;;;;;;4.30;0.90;;;;;;;25.96;40.24;100331.59;4999733;27;20415;-45
2022/10/10 09:35:04;;;;;;;4.00;0.60;;;;;;;26.20;39.92;100328.31;4991053;28;20078;-43
2022/10/10 09:37:37;;;;;;;5.05;0.68;;;;;;;26.36;39.62;100338.84;4998210;28;20072;-44
2022/10/10 09:40:33;;;;;;;6.40;0.98;;;;;;;26.57;38.69;100333.06;4997597;28;20634;-43
2022/10/10 09:43:10;;;;;;;6.20;0.70;;;;;;;26.57;38.68;100330.41;4993470;28;20054;-44
2022/10/10 09:45:45;;;;;;;4.75;0.85;;;;;;;26.42;38.46;100333.13;5010452;28;20050;-43
2022/10/10 09:48:12;;;;;;;4.47;1.00;;;;;;;26.45;38.41;100337.41;4997408;28;20068;-46
2022/10/10 09:50:39;;;;;;;5.55;0.95;;;;;;;26.37;37.92;100342.34;4995859;28;20093;-44
2022/10/10 09:53:14;;;;;;;6.38;0.70;;;;;;;26.28;37.88;100346.44;4992607;28;20105;-46
2022/10/10 09:55:43;;;;;;;5.57;1.10;;;;;;;26.23;37.87;100349.34;4995657;28;20081;-45
2022/10/10 10:06:46;;;;;;;7.95;2.65;;;;;;;25.77;38.18;100371.69;5078264;27;20408;-43
2022/10/10 10:09:17;;;;;;;13.95;3.17;;;;;;;25.75;38.03;100365.63;5024651;28;20045;-45
2022/10/10 10:11:47;;;;;;;6.45;2.05;;;;;;;25.85;38.29;100377.38;5039164;28;20580;-45
2022/10/10 10:14:25;;;;;;;9.10;2.40;;;;;;;25.77;37.34;100374.34;5040075;28;20045;-44
2022/10/10 10:16:54;;;;;;;7.13;1.77;;;;;;;25.50;37.94;100373.25;5039445;28;20131;-44
2022/10/10 10:19:40;;;;;;;7.53;2.22;;;;;;;25.29;37.59;100375.41;5052561;28;20147;-47
2022/10/10 10:25:19;;;;;;;5.50;1.02;;;;;;;24.30;39.24;100381.88;5015240;28;20408;-44
2022/10/10 10:27:46;;;;;;;5.65;1.00;;;;;;;23.74;39.25;100389.19;4993672;28;20053;-43
2022/10/10 10:30:32;;;;;;;8.75;1.20;;;;;;;22.83;39.54;100392.81;4979239;28;20042;-44
2022/10/10 10:33:08;;;;;;;7.47;1.23;;;;;;;22.49;41.16;100391.78;4983391;28;20057;-45
2022/10/10 10:35:47;;;;;;;9.00;1.23;;;;;;;22.28;41.67;100404.19;5011468;28;20050;-43
2022/10/10 10:38:25;;;;;;;5.80;1.25;;;;;;;21.99;42.08;100407.25;4979796;28;20133;-44
2022/10/10 10:56:39;;;;;;;7.80;1.75;;;;;;;20.13;45.14;100414.66;5057995;28;20399;-43
2022/10/10 11:07:22;;;;;;;5.72;1.00;;;;;;;19.35;46.00;100432.25;5098369;27;20405;-42
2022/10/10 11:13:27;;;;;;;5.75;1.42;;;;;;;18.71;46.06;100442.94;5039165;27;20421;-42
2022/10/10 11:16:01;;;;;;;5.72;2.00;;;;;;;18.55;46.96;100452.19;5029083;28;20085;-41
2022/10/10 11:18:48;;;;;;;8.90;0.90;;;;;;;18.37;46.90;100449.19;5007413;28;20057;-42
2022/10/10 11:21:22;;;;;;;4.55;1.20;;;;;;;18.31;47.64;100459.88;5005165;28;20092;-43
2022/10/10 11:23:59;;;;;;;7.28;1.08;;;;;;;18.29;48.16;100461.66;4998865;28;20084;-42
2022/10/10 11:26:32;;;;;;;7.25;1.02;;;;;;;18.24;47.90;100464.44;5005509;28;20084;-43
2022/10/10 11:31:43;;;;;;;8.85;2.22;;;;;;;18.15;48.56;100462.91;5019931;27;20462;-43
2022/10/10 11:34:18;;;;;;;3.53;1.35;;;;;;;18.16;48.51;100471.63;5011252;28;20136;-41
2022/10/10 11:36:46;;;;;;;7.72;2.78;;;;;;;18.21;48.01;100475.84;5006491;28;20145;-43
2022/10/10 11:39:19;;;;;;;5.35;3.10;;;;;;;18.18;48.25;100485.56;5008818;28;20141;-42
2022/10/10 11:41:54;;;;;;;3.88;1.95;;;;;;;18.08;48.19;100474.44;5012357;28;20077;-42
2022/10/10 11:44:30;;;;;;;4.13;1.98;;;;;;;17.88;47.80;100478.47;5015235;28;20136;-43
2022/10/10 11:47:28;;;;;;;5.38;2.15;;;;;;;17.67;47.63;100483.34;5010636;28;20052;-42
2022/10/10 12:00:27;;;;;;;4.85;2.95;;;;;;;17.52;49.38;100487.22;5041381;27;20400;-41
2022/10/10 12:02:55;;;;;;;6.90;2.80;;;;;;;17.44;49.44;100483.91;4983756;28;20093;-42
2022/10/10 12:05:26;;;;;;;4.10;2.47;;;;;;;17.39;49.49;100481.41;4984955;28;20612;-43
2022/10/10 12:10:36;;;;;;;7.85;1.52;;;;;;;17.43;49.38;100503.16;5011565;28;20408;-42
2022/10/10 12:15:52;;;;;;;9.30;1.25;;;;;;;17.44;48.99;100500.50;5072018;27;20395;-43
2022/10/10 12:18:36;;;;;;;4.22;0.63;;;;;;;17.36;49.27;100502.41;5031949;28;20089;-42
2022/10/10 12:21:07;;;;;;;4.55;1.00;;;;;;;17.42;49.60;100502.28;5033965;28;20530;-42
2022/10/10 12:23:35;;;;;;;9.38;1.08;;;;;;;17.46;49.12;100517.03;5032904;28;20087;-42
2022/10/10 12:26:02;;;;;;;5.53;0.80;;;;;;;17.46;48.47;100516.16;5035114;28;20076;-42
2022/10/10 12:28:36;;;;;;;9.52;0.80;;;;;;;17.44;49.06;100515.34;5033503;28;20057;-42
2022/10/10 12:49:55;;;;;;;4.75;2.33;;;;;;;17.15;48.18;100520.34;5009952;27;21206;-42
2022/10/10 12:55:16;;;;;;;6.70;1.00;;;;;;;16.94;48.75;100526.91;5024788;28;20387;-41
2022/10/10 12:57:44;;;;;;;4.70;0.57;;;;;;;16.97;48.70;100524.22;5010393;28;20046;-43
2022/10/10 13:03:00;;;;;;;5.07;0.60;;;;;;;16.86;48.20;100540.16;5057080;27;20386;-42
2022/10/10 13:05:32;;;;;;;7.10;0.50;;;;;;;16.83;47.81;100529.75;5021226;28;20083;-41
2022/10/10 13:08:03;;;;;;;6.18;0.80;;;;;;;16.91;47.96;100529.56;5018044;28;20104;-41
2022/10/10 13:10:31;;;;;;;8.05;0.93;;;;;;;16.98;47.90;100538.16;5003367;28;20086;-41
2022/10/10 13:15:38;;;;;;;4.00;1.20;;;;;;;17.24;47.80;100544.59;5062690;27;20401;-42
2022/10/10 13:18:04;;;;;;;5.88;0.90;;;;;;;17.30;47.86;100537.47;5006268;28;20400;-41
2022/10/10 13:20:37;;;;;;;4.32;1.10;;;;;;;17.35;47.07;100542.59;5014582;28;20088;-41
2022/10/10 13:23:10;;;;;;;2.70;0.65;;;;;;;17.40;46.46;100539.88;5015456;28;20057;-41
2022/10/10 13:25:39;;;;;;;1.67;0.65;;;;;;;17.39;46.39;100552.09;5014124;28;20129;-41
2022/10/10 13:28:16;;;;;;;3.53;0.75;;;;;;;17.33;46.05;100560.13;5011091;28;20504;-40
2022/10/10 13:30:44;;;;;;;4.70;0.63;;;;;;;17.36;46.61;100554.78;5012418;28;20079;-42
2022/10/10 13:33:16;;;;;;;4.50;0.90;;;;;;;17.32;46.83;100568.84;5012046;28;20120;-41
2022/10/10 13:35:44;;;;;;;2.97;0.63;;;;;;;17.20;45.57;100559.53;5013463;28;20089;-39